< < Back
Terminal Aerodrome Forecast


Current Version              Previous Versions:   1  2  3  4  5  6  7  8  9  

Terminal Aerodrome Forecast

023
FTUS44 KMOB 261740
TAFMOB
TAF
KMOB 261740Z 2618/2718 14015KT 4SM -SHRA BR SCT018 OVC090
      TEMPO 2618/2620 VRB15G25KT 3SM TSRA BKN018CB
     FM262100 19010KT 6SM BR VCSH SCT025 OVC080
      TEMPO 2701/2705 4SM SHRA BKN025
     FM270500 33012KT P6SM BKN010 OVC060
     FM271300 34013KT P6SM SCT030=



Latest METAR

815
SAUS80 KWBC 262200 CCA
MTRMOB
METAR KMOB 262156Z 19009KT 6SM BR SCT007 SCT100 BKN200 19/18 A2982 RMK
AO2 RAE18 SLP096 P0000 T01940183


USA.gov is the U.S. government's official web portal to all federal, state and local government web resources and services.